Terminal Aerodrome Forecast
Issued by NWS

Home | Current Version | Previous Version | Text Only | Print | Product List | Glossary On
Versions: 1 2 3 4 5 6 7 8 9 10 11 12 13 14 15
510
FTUS46 KSTO 220549
TAFRDD
TAF
KRDD 220549Z 2206/2306 17020G30KT P6SM -RA SCT015 OVC040
      TEMPO 2206/2210 3SM RA OVC015
     FM221000 18026G45KT 4SM RA OVC015
      TEMPO 2210/2214 2SM RA OVC007
     FM221600 18015KT 6SM -RA OVC015
     FM222100 14012G25KT P6SM -SHRA OVC050=

USA.gov is the U.S. government's official web portal to all federal, state and local government web resources and services.